Eden, North Carolina
Current Conditions -  °F | °C
As of 2:15 PM on Friday 21 Nov 2014 (Local Time) from KSIF Reporting Station
Clear Clear  
Wind Chill:   Ceiling: Unl
Heat Index:   Visibility: 10mi
Dew Point: -12°   Wind: 6mph
Humidity: 25%   Direction: 10°N
Pressure: 30.43"   Gusts: NA
Location:  36.5°N, 79.74°W
Report Text: KSIF 211915Z AUTO 01005KT 10SM CLR 07/M12 A3043 RMK AO2 T00701122
Loading
Personal Weather Stations






























Interactive Weather Map New forecast layout! Learn more

10-Day Weather Forecast

Advertisements
Track Severe Weather on mobile